createdAt,value
2018-01-21T00:00:17.893Z,93.31
2018-01-21T00:02:45.561Z,93.05
2018-01-21T00:05:13.320Z,92.57
2018-01-21T00:07:41.038Z,92.46
2018-01-21T00:10:08.738Z,91.48
2018-01-21T00:12:36.510Z,90.71
2018-01-21T00:15:04.209Z,90.83
2018-01-21T00:17:31.933Z,91.35
2018-01-21T00:19:59.650Z,91.84
2018-01-21T00:22:38.961Z,91.75
2018-01-21T00:25:06.712Z,91.66
2018-01-21T00:27:34.493Z,92.08
2018-01-21T00:30:02.169Z,92.83
2018-01-21T00:32:29.964Z,93.15
2018-01-21T00:34:57.762Z,93.17
2018-01-21T00:37:25.483Z,93.67
2018-01-21T00:39:53.246Z,93.73
2018-01-21T00:42:20.964Z,93.56
2018-01-21T00:44:48.713Z,93.45
2018-01-21T00:47:16.425Z,93.63
2018-01-21T00:49:44.211Z,93.59
2018-01-21T00:52:11.971Z,93.51
2018-01-21T00:54:39.660Z,93.53
2018-01-21T00:57:07.616Z,93.36
2018-01-21T00:59:35.302Z,92.65
2018-01-21T01:02:03.044Z,92.22
2018-01-21T01:04:30.810Z,92.15
2018-01-21T01:06:58.471Z,92.69
2018-01-21T01:09:26.210Z,92.69
2018-01-21T01:11:53.923Z,92.07
2018-01-21T01:14:21.617Z,91.70
2018-01-21T01:16:49.372Z,91.73
2018-01-21T01:19:17.049Z,92.25
2018-01-21T01:21:44.971Z,92.20
2018-01-21T01:24:12.688Z,92.41
2018-01-21T01:26:40.449Z,92.86
2018-01-21T01:29:08.225Z,92.84
2018-01-21T01:31:35.910Z,93.12
2018-01-21T01:34:03.662Z,92.53
2018-01-21T01:36:31.400Z,91.67
2018-01-21T01:38:59.106Z,91.08
2018-01-21T01:41:26.845Z,90.46
2018-01-21T01:43:54.603Z,90.33
2018-01-21T01:46:22.270Z,89.90
2018-01-21T01:48:55.993Z,89.10
2018-01-21T01:51:23.693Z,89.05
2018-01-21T01:53:51.443Z,89.08
2018-01-21T01:56:19.144Z,88.80
2018-01-21T01:58:46.851Z,88.85
2018-01-21T02:01:14.636Z,89.73
2018-01-21T02:03:42.331Z,90.38
2018-01-21T02:06:10.068Z,90.43
2018-01-21T02:08:37.838Z,90.86
2018-01-21T02:11:05.543Z,91.07
2018-01-21T02:13:33.236Z,91.34
2018-01-21T02:16:00.995Z,91.97
2018-01-21T02:18:28.738Z,92.60
2018-01-21T02:20:56.469Z,92.60
2018-01-21T02:23:24.165Z,92.35
2018-01-21T02:25:52.616Z,91.33
2018-01-21T02:28:20.365Z,90.91
2018-01-21T02:30:48.075Z,90.22
2018-01-21T02:33:15.821Z,90.22
2018-01-21T02:35:43.567Z,90.66
2018-01-21T02:38:11.315Z,90.77
2018-01-21T02:40:39.017Z,91.39
2018-01-21T02:43:06.775Z,92.32
2018-01-21T02:45:34.451Z,92.06
2018-01-21T02:48:02.229Z,91.99
2018-01-21T02:50:30.043Z,91.96
2018-01-21T02:52:57.748Z,91.93
2018-01-21T02:55:25.501Z,92.19
2018-01-21T02:57:53.166Z,92.15
2018-01-21T03:00:20.879Z,91.90
2018-01-21T03:02:48.733Z,91.65
2018-01-21T03:05:16.457Z,91.15
2018-01-21T03:07:44.262Z,91.31
2018-01-21T03:10:11.993Z,91.76
2018-01-21T03:12:39.703Z,92.31
2018-01-21T03:15:07.443Z,92.84
2018-01-21T03:17:35.119Z,92.90
2018-01-21T03:20:02.867Z,93.05
2018-01-21T03:22:30.546Z,92.97
2018-01-21T03:24:58.235Z,92.99
2018-01-21T03:27:26.034Z,92.64
2018-01-21T03:29:53.735Z,92.67
2018-01-21T03:32:21.476Z,92.74
2018-01-21T03:34:49.154Z,93.01
2018-01-21T03:37:16.887Z,92.86
2018-01-21T03:39:44.643Z,93.11
2018-01-21T03:42:12.372Z,93.02
2018-01-21T03:44:40.059Z,92.92
2018-01-21T03:47:07.776Z,92.62
2018-01-21T03:49:35.436Z,92.20
2018-01-21T03:52:03.135Z,91.71
2018-01-21T03:54:30.934Z,90.64
2018-01-21T03:56:58.666Z,90.78
2018-01-21T03:59:26.436Z,91.42
2018-01-21T04:01:54.103Z,92.23
2018-01-21T04:04:21.835Z,90.77
2018-01-21T04:06:49.538Z,90.31
2018-01-21T04:09:17.215Z,91.00
2018-01-21T04:11:44.923Z,92.22
2018-01-21T04:14:12.595Z,93.02
2018-01-21T04:16:40.273Z,92.83
2018-01-21T04:19:07.990Z,92.42
2018-01-21T04:21:35.735Z,92.77
2018-01-21T04:24:03.462Z,92.63
2018-01-21T04:26:31.139Z,92.43
2018-01-21T04:28:59.824Z,92.63
2018-01-21T04:31:27.526Z,92.20
2018-01-21T04:33:55.243Z,91.88
2018-01-21T04:36:23.034Z,91.84
2018-01-21T04:38:50.814Z,91.99
2018-01-21T04:41:18.524Z,91.77
2018-01-21T04:43:46.252Z,92.98
2018-01-21T04:46:13.989Z,93.07
2018-01-21T04:48:41.670Z,92.79
2018-01-21T04:51:09.407Z,93.27
2018-01-21T04:53:37.128Z,92.88
2018-01-21T04:56:04.874Z,92.67
2018-01-21T04:58:32.578Z,92.40
2018-01-21T05:01:00.260Z,92.59
2018-01-21T05:03:27.966Z,92.55
2018-01-21T05:05:55.702Z,92.73
2018-01-21T05:08:23.376Z,92.89
2018-01-21T05:10:51.216Z,92.73
2018-01-21T05:13:18.878Z,92.58
2018-01-21T05:15:46.651Z,92.81
2018-01-21T05:18:14.388Z,93.35
2018-01-21T05:20:43.047Z,93.73
2018-01-21T05:23:10.811Z,93.59
2018-01-21T05:25:38.530Z,93.41
2018-01-21T05:28:06.281Z,92.86
2018-01-21T05:30:33.990Z,92.46
2018-01-21T05:33:01.738Z,92.93
2018-01-21T05:35:29.453Z,92.56
2018-01-21T05:37:57.131Z,93.03
2018-01-21T05:40:24.925Z,92.50
2018-01-21T05:42:53.065Z,92.72
2018-01-21T05:45:20.947Z,93.21
2018-01-21T05:47:48.913Z,92.93
2018-01-21T05:50:16.905Z,92.80
2018-01-21T05:52:45.042Z,92.74
2018-01-21T05:55:12.838Z,93.12
2018-01-21T05:57:40.539Z,93.61
2018-01-21T06:00:08.291Z,93.66
2018-01-21T06:02:36.002Z,94.25
2018-01-21T06:05:04.789Z,94.07
2018-01-21T06:07:32.671Z,93.35
2018-01-21T06:10:00.558Z,93.12
2018-01-21T06:12:28.594Z,91.64
2018-01-21T06:14:56.486Z,92.54
2018-01-21T06:17:24.394Z,92.73
2018-01-21T06:19:52.233Z,92.88
2018-01-21T06:22:20.034Z,92.54
2018-01-21T06:24:47.994Z,93.17
2018-01-21T06:27:15.959Z,93.49
2018-01-21T06:29:43.981Z,92.99
2018-01-21T06:32:13.925Z,92.59
2018-01-21T06:34:41.960Z,92.66
2018-01-21T06:37:09.783Z,92.47
2018-01-21T06:39:37.695Z,92.56
2018-01-21T06:42:06.719Z,92.68
2018-01-21T06:44:35.181Z,92.55
2018-01-21T06:47:04.319Z,92.86
2018-01-21T06:49:32.138Z,93.14
2018-01-21T06:51:59.962Z,93.39
2018-01-21T06:54:27.968Z,93.47
2018-01-21T06:56:55.992Z,93.77
2018-01-21T06:59:23.983Z,94.12
2018-01-21T07:01:51.955Z,94.16
2018-01-21T07:04:20.014Z,92.29
2018-01-21T07:06:48.144Z,91.76
2018-01-21T07:09:15.998Z,92.43
2018-01-21T07:11:44.064Z,92.74
2018-01-21T07:14:12.136Z,91.26
2018-01-21T07:16:40.199Z,92.20
2018-01-21T07:19:08.232Z,92.17
2018-01-21T07:21:36.627Z,92.03
2018-01-21T07:24:05.335Z,93.04
2018-01-21T07:26:33.769Z,92.68
2018-01-21T07:29:01.584Z,93.79
2018-01-21T07:31:29.563Z,93.97
2018-01-21T07:33:57.320Z,94.09
2018-01-21T07:36:25.393Z,94.42
2018-01-21T07:38:53.275Z,94.14
2018-01-21T07:41:21.353Z,92.80
2018-01-21T07:43:49.364Z,91.92
2018-01-21T07:46:18.077Z,92.55
2018-01-21T07:48:45.972Z,92.97
2018-01-21T07:51:13.739Z,93.21
2018-01-21T07:53:41.799Z,93.13
2018-01-21T07:56:09.976Z,93.27
2018-01-21T07:58:38.090Z,93.17
2018-01-21T08:01:06.792Z,92.19
2018-01-21T08:03:34.747Z,90.90
2018-01-21T08:06:03.888Z,91.09
2018-01-21T08:08:31.972Z,90.37
2018-01-21T08:11:00.463Z,90.68
2018-01-21T08:13:28.189Z,90.39
2018-01-21T08:15:56.922Z,89.32
2018-01-21T08:18:24.678Z,90.39
2018-01-21T08:20:52.667Z,90.35
2018-01-21T08:23:20.656Z,90.32
2018-01-21T08:25:48.751Z,90.89
2018-01-21T08:28:16.621Z,90.65
2018-01-21T08:30:45.761Z,90.29
2018-01-21T08:33:13.674Z,89.11
2018-01-21T08:35:47.826Z,89.11
2018-01-21T08:38:21.426Z,88.89
2018-01-21T08:40:54.774Z,89.33
2018-01-21T08:43:22.743Z,90.83
2018-01-21T08:45:50.759Z,88.77
2018-01-21T08:48:18.802Z,89.62
2018-01-21T08:50:46.968Z,89.70
2018-01-21T08:53:15.042Z,89.87
2018-01-21T08:55:43.154Z,89.14
2018-01-21T08:58:11.222Z,89.11
2018-01-21T09:00:39.300Z,89.35
2018-01-21T09:03:07.372Z,89.96
2018-01-21T09:05:35.171Z,90.06
2018-01-21T09:08:02.960Z,89.08
2018-01-21T09:10:30.953Z,89.53
2018-01-21T09:12:58.899Z,89.30
2018-01-21T09:15:27.272Z,89.69
2018-01-21T09:17:55.437Z,90.60
2018-01-21T09:20:24.496Z,89.77
2018-01-21T09:22:53.212Z,90.52
2018-01-21T09:25:21.474Z,90.99
2018-01-21T09:27:49.519Z,88.87
2018-01-21T09:30:17.391Z,89.32
2018-01-21T09:32:45.555Z,89.26
2018-01-21T09:35:13.638Z,88.99
2018-01-21T09:37:42.736Z,90.08
2018-01-21T09:40:10.683Z,90.55
2018-01-21T09:42:38.777Z,89.92
2018-01-21T09:45:07.871Z,90.18
2018-01-21T09:47:36.697Z,88.87
2018-01-21T09:50:04.801Z,88.31
2018-01-21T09:52:34.953Z,88.01
2018-01-21T09:55:04.561Z,88.55
2018-01-21T09:57:32.637Z,87.84
2018-01-21T10:00:00.647Z,87.48
2018-01-21T10:02:28.757Z,87.04
2018-01-21T10:04:56.857Z,85.72
2018-01-21T10:07:24.921Z,85.00
2018-01-21T10:09:52.996Z,87.31
2018-01-21T10:12:21.028Z,88.42
2018-01-21T10:14:49.138Z,85.08
2018-01-21T10:17:18.636Z,85.82
2018-01-21T10:19:51.746Z,85.27
2018-01-21T10:22:20.949Z,86.09
2018-01-21T10:24:52.099Z,87.19
2018-01-21T10:27:20.127Z,85.71
2018-01-21T10:29:48.025Z,85.00
2018-01-21T10:32:19.712Z,85.28
2018-01-21T10:34:47.628Z,86.54
2018-01-21T10:37:15.597Z,86.57
2018-01-21T10:39:43.477Z,87.42
2018-01-21T10:42:12.217Z,87.85
2018-01-21T10:44:40.296Z,86.74
2018-01-21T10:47:08.204Z,85.34
2018-01-21T10:49:36.154Z,84.85
2018-01-21T10:52:05.279Z,83.65
2018-01-21T10:54:33.342Z,85.00
2018-01-21T10:57:01.136Z,85.13
2018-01-21T10:59:30.099Z,85.20
2018-01-21T11:01:58.040Z,83.79
2018-01-21T11:04:25.778Z,81.63
2018-01-21T11:06:54.113Z,83.13
2018-01-21T11:09:22.491Z,83.76
2018-01-21T11:11:50.561Z,85.31
2018-01-21T11:14:18.545Z,86.84
2018-01-21T11:16:46.610Z,88.26
2018-01-21T11:19:14.757Z,88.71
2018-01-21T11:21:43.472Z,88.59
2018-01-21T11:24:11.535Z,88.02
2018-01-21T11:26:39.383Z,86.85
2018-01-21T11:29:07.282Z,87.27
2018-01-21T11:31:36.366Z,87.55
2018-01-21T11:34:04.310Z,88.33
2018-01-21T11:36:33.606Z,84.89
2018-01-21T11:39:01.386Z,84.81
2018-01-21T11:41:29.170Z,84.20
2018-01-21T11:43:57.429Z,84.20
2018-01-21T11:46:25.134Z,84.36
2018-01-21T11:48:52.912Z,85.43
2018-01-21T11:51:20.610Z,85.48
2018-01-21T11:53:48.479Z,86.64
2018-01-21T11:56:17.096Z,86.84
2018-01-21T11:58:45.730Z,86.71
2018-01-21T12:01:13.657Z,86.23
2018-01-21T12:03:42.135Z,84.02
2018-01-21T12:06:10.032Z,81.21
2018-01-21T12:08:37.921Z,82.54
2018-01-21T12:11:05.838Z,80.81
2018-01-21T12:13:33.720Z,81.91
2018-01-21T12:16:01.678Z,80.59
2018-01-21T12:18:29.663Z,80.63
2018-01-21T12:20:57.603Z,80.79
2018-01-21T12:23:26.572Z,80.53
2018-01-21T12:25:54.570Z,81.79
2018-01-21T12:28:22.432Z,81.32
2018-01-21T12:30:50.609Z,81.91
2018-01-21T12:33:18.665Z,82.13
2018-01-21T12:35:46.836Z,81.44
2018-01-21T12:38:14.750Z,81.38
2018-01-21T12:40:43.648Z,81.09
2018-01-21T12:43:12.884Z,80.54
2018-01-21T12:45:41.756Z,81.07
2018-01-21T12:48:10.081Z,81.51
2018-01-21T12:50:39.383Z,82.29
2018-01-21T12:53:07.525Z,82.97
2018-01-21T12:55:35.591Z,84.36
2018-01-21T12:58:03.656Z,83.59
2018-01-21T13:00:31.531Z,83.40
2018-01-21T13:02:59.416Z,84.40
2018-01-21T13:05:27.640Z,84.25
2018-01-21T13:07:55.552Z,83.73
2018-01-21T13:10:23.421Z,85.08
2018-01-21T13:12:51.390Z,84.38
2018-01-21T13:15:19.555Z,83.07
2018-01-21T13:17:48.183Z,83.63
2018-01-21T13:20:18.100Z,83.76
2018-01-21T13:22:46.979Z,82.49
2018-01-21T13:25:14.657Z,82.94
2018-01-21T13:27:42.458Z,81.53
2018-01-21T13:30:10.179Z,81.54
2018-01-21T13:32:38.037Z,81.16
2018-01-21T13:35:05.805Z,80.70
2018-01-21T13:37:33.692Z,80.71
2018-01-21T13:40:01.493Z,81.09
2018-01-21T13:42:29.254Z,79.81
2018-01-21T13:44:57.010Z,79.18
2018-01-21T13:47:24.877Z,79.30
2018-01-21T13:49:52.598Z,81.37
2018-01-21T13:52:20.347Z,80.90
2018-01-21T13:54:48.052Z,80.92
2018-01-21T13:57:15.796Z,82.69
2018-01-21T13:59:43.576Z,83.11
2018-01-21T14:02:11.366Z,83.53
2018-01-21T14:04:39.062Z,83.61
2018-01-21T14:07:06.760Z,84.61
2018-01-21T14:09:34.507Z,84.89
2018-01-21T14:12:02.432Z,84.69
2018-01-21T14:14:30.213Z,85.49
2018-01-21T14:16:57.911Z,87.12
2018-01-21T14:19:25.654Z,87.16
2018-01-21T14:21:53.488Z,88.14
2018-01-21T14:24:21.333Z,88.75
2018-01-21T14:26:49.124Z,88.63
2018-01-21T14:29:16.856Z,88.27
2018-01-21T14:31:44.651Z,89.39
2018-01-21T14:34:12.431Z,89.53
2018-01-21T14:36:40.167Z,90.25
2018-01-21T14:39:07.929Z,90.17
2018-01-21T14:41:35.694Z,90.75
2018-01-21T14:44:03.503Z,90.88
2018-01-21T14:46:31.272Z,91.58
2018-01-21T14:48:59.077Z,91.45
2018-01-21T14:51:26.816Z,91.08
2018-01-21T14:53:54.630Z,91.54
2018-01-21T14:56:22.422Z,91.23
2018-01-21T14:58:50.133Z,90.96
2018-01-21T15:01:17.843Z,91.63
2018-01-21T15:03:45.627Z,91.37
2018-01-21T15:06:13.562Z,91.34
2018-01-21T15:08:41.343Z,91.63
2018-01-21T15:11:09.167Z,91.99
2018-01-21T15:13:36.942Z,92.42
2018-01-21T15:16:04.741Z,92.98
2018-01-21T15:18:32.492Z,93.21
2018-01-21T15:21:00.242Z,93.27
2018-01-21T15:23:28.075Z,92.79
2018-01-21T15:25:56.733Z,93.18
2018-01-21T15:28:24.824Z,93.61
2018-01-21T15:30:52.692Z,93.55
2018-01-21T15:33:21.692Z,93.62
2018-01-21T15:35:49.382Z,93.25
2018-01-21T15:38:17.365Z,93.09
2018-01-21T15:40:45.120Z,93.14
2018-01-21T15:43:12.914Z,93.13
2018-01-21T15:45:40.765Z,92.88
2018-01-21T15:48:08.603Z,93.29
2018-01-21T15:50:36.480Z,93.42
2018-01-21T15:53:04.892Z,93.17
2018-01-21T15:55:32.698Z,92.99
2018-01-21T15:58:00.497Z,93.53
2018-01-21T16:00:28.348Z,93.68
2018-01-21T16:02:56.353Z,93.58
2018-01-21T16:05:24.365Z,93.75
2018-01-21T16:07:52.646Z,93.41
2018-01-21T16:10:20.752Z,93.57
2018-01-21T16:12:48.976Z,93.77
2018-01-21T16:15:17.724Z,93.89
2018-01-21T16:17:46.858Z,93.95
2018-01-21T16:20:15.946Z,94.08
2018-01-21T16:22:45.937Z,93.93
2018-01-21T16:25:14.111Z,94.42
2018-01-21T16:27:43.115Z,94.36
2018-01-21T16:30:11.716Z,94.29
2018-01-21T16:32:40.233Z,94.41
2018-01-21T16:35:09.025Z,94.62
2018-01-21T16:37:48.445Z,94.13
2018-01-21T16:40:16.338Z,94.27
2018-01-21T16:42:46.068Z,94.37
2018-01-21T16:45:13.997Z,94.01
2018-01-21T16:47:42.152Z,94.09
2018-01-21T16:50:10.533Z,94.58
2018-01-21T16:52:38.336Z,94.73
2018-01-21T16:55:06.290Z,94.45
2018-01-21T16:57:34.475Z,94.22
2018-01-21T17:00:03.778Z,94.21
2018-01-21T17:02:32.714Z,94.25
2018-01-21T17:05:00.675Z,94.07
2018-01-21T17:07:28.518Z,93.89
2018-01-21T17:09:56.473Z,93.99
2018-01-21T17:12:25.666Z,93.79
2018-01-21T17:14:54.712Z,94.32
2018-01-21T17:17:24.772Z,94.54
2018-01-21T17:19:53.256Z,94.51
2018-01-21T17:22:21.342Z,94.18
2018-01-21T17:24:54.723Z,94.61
2018-01-21T17:27:23.002Z,95.02
2018-01-21T17:29:51.233Z,94.97
2018-01-21T17:32:19.278Z,95.14
2018-01-21T17:34:47.303Z,95.07
2018-01-21T17:37:15.188Z,94.76
2018-01-21T17:39:43.683Z,94.72
2018-01-21T17:42:12.351Z,94.74
2018-01-21T17:44:40.099Z,93.92
2018-01-21T17:47:08.090Z,93.32
2018-01-21T17:49:36.098Z,93.18
2018-01-21T17:52:03.831Z,93.12
2018-01-21T17:54:31.604Z,93.28
2018-01-21T17:57:00.628Z,92.70
2018-01-21T17:59:28.433Z,93.07
2018-01-21T18:01:56.236Z,92.96
2018-01-21T18:04:24.025Z,92.05
2018-01-21T18:06:51.894Z,92.26
2018-01-21T18:09:19.678Z,92.75
2018-01-21T18:11:48.193Z,92.72
2018-01-21T18:14:16.113Z,93.19
2018-01-21T18:16:44.133Z,92.67
2018-01-21T18:19:12.154Z,92.66
2018-01-21T18:21:40.992Z,92.97
2018-01-21T18:24:08.910Z,92.99
2018-01-21T18:26:36.983Z,92.87
2018-01-21T18:29:04.926Z,92.81
2018-01-21T18:31:32.969Z,92.05
2018-01-21T18:34:00.659Z,91.80
2018-01-21T18:36:28.477Z,91.36
2018-01-21T18:38:58.178Z,89.37
2018-01-21T18:41:26.428Z,90.30
2018-01-21T18:43:54.318Z,90.29
2018-01-21T18:46:22.233Z,90.38
2018-01-21T18:48:50.612Z,88.98
2018-01-21T18:51:19.539Z,88.98
2018-01-21T18:53:47.569Z,89.15
2018-01-21T18:56:16.483Z,88.85
2018-01-21T18:58:44.532Z,88.18
2018-01-21T19:01:12.601Z,87.33
2018-01-21T19:03:41.124Z,88.98
2018-01-21T19:06:10.591Z,89.70
2018-01-21T19:08:39.943Z,88.75
2018-01-21T19:11:08.443Z,88.27
2018-01-21T19:13:37.508Z,88.31
2018-01-21T19:16:07.505Z,90.28
2018-01-21T19:18:35.426Z,91.55
2018-01-21T19:21:04.119Z,91.66
2018-01-21T19:23:32.215Z,91.55
2018-01-21T19:26:00.292Z,91.49
2018-01-21T19:28:28.425Z,91.45
2018-01-21T19:30:56.808Z,91.51
2018-01-21T19:33:24.804Z,91.74
2018-01-21T19:35:53.447Z,91.80
2018-01-21T19:38:26.994Z,87.24
2018-01-21T19:40:56.898Z,86.07
2018-01-21T19:43:26.729Z,88.57
2018-01-21T19:45:55.512Z,89.86
2018-01-21T19:48:23.952Z,90.41
2018-01-21T19:50:52.269Z,90.63
2018-01-21T19:53:20.366Z,90.37
2018-01-21T19:55:50.585Z,90.68
2018-01-21T19:58:18.643Z,90.80
2018-01-21T20:00:46.708Z,91.75
2018-01-21T20:03:15.189Z,91.90
2018-01-21T20:05:43.370Z,89.24
2018-01-21T20:08:11.276Z,86.97
2018-01-21T20:10:39.189Z,87.22
2018-01-21T20:13:13.631Z,87.84
2018-01-21T20:15:42.799Z,88.32
2018-01-21T20:18:10.921Z,89.24
2018-01-21T20:20:38.956Z,89.89
2018-01-21T20:23:07.242Z,90.61
2018-01-21T20:25:35.313Z,91.06
2018-01-21T20:28:04.200Z,90.87
2018-01-21T20:30:32.271Z,90.90
2018-01-21T20:33:01.363Z,90.90
2018-01-21T20:35:30.165Z,90.33
2018-01-21T20:37:58.477Z,90.37
2018-01-21T20:40:27.162Z,90.55
2018-01-21T20:42:55.155Z,88.37
2018-01-21T20:45:24.170Z,90.45
2018-01-21T20:47:53.086Z,91.07
2018-01-21T20:50:21.036Z,91.34
2018-01-21T20:52:49.428Z,91.30
2018-01-21T20:55:18.317Z,87.99
2018-01-21T20:57:47.437Z,87.01
2018-01-21T21:00:15.433Z,88.36
2018-01-21T21:02:43.561Z,86.96
2018-01-21T21:05:11.584Z,87.34
2018-01-21T21:07:39.483Z,88.30
2018-01-21T21:10:07.899Z,89.32
2018-01-21T21:12:37.465Z,90.19
2018-01-21T21:15:06.521Z,90.77
2018-01-21T21:17:35.151Z,90.11
2018-01-21T21:20:04.099Z,87.34
2018-01-21T21:22:33.251Z,87.19
2018-01-21T21:25:01.612Z,88.14
2018-01-21T21:27:30.426Z,88.48
2018-01-21T21:29:58.346Z,88.54
2018-01-21T21:32:26.385Z,88.39
2018-01-21T21:34:56.720Z,87.76
2018-01-21T21:37:24.597Z,89.57
2018-01-21T21:39:53.139Z,90.69
2018-01-21T21:42:21.413Z,88.07
2018-01-21T21:44:49.510Z,89.12
2018-01-21T21:47:18.385Z,90.35
2018-01-21T21:49:46.886Z,84.40
2018-01-21T21:52:14.786Z,87.56
2018-01-21T21:54:43.004Z,89.60
2018-01-21T21:57:11.342Z,89.10
2018-01-21T21:59:40.478Z,86.45
2018-01-21T22:02:09.384Z,88.38
2018-01-21T22:04:37.451Z,88.53
2018-01-21T22:07:05.526Z,89.45
2018-01-21T22:09:34.559Z,90.05
2018-01-21T22:12:02.682Z,90.67
2018-01-21T22:14:30.758Z,90.39
2018-01-21T22:16:58.767Z,90.35
2018-01-21T22:19:26.916Z,90.31
2018-01-21T22:21:56.502Z,90.12
2018-01-21T22:24:24.601Z,90.17
2018-01-21T22:26:53.541Z,90.29
2018-01-21T22:29:21.406Z,90.47
2018-01-21T22:31:49.998Z,90.38
2018-01-21T22:34:18.186Z,90.16
2018-01-21T22:36:46.031Z,89.65
2018-01-21T22:39:14.563Z,89.67
2018-01-21T22:41:42.587Z,89.68
2018-01-21T22:44:10.585Z,89.13
2018-01-21T22:46:39.322Z,88.98
2018-01-21T22:49:07.144Z,89.09
2018-01-21T22:51:35.181Z,89.34
2018-01-21T22:54:03.085Z,88.83
2018-01-21T22:56:31.149Z,88.13
2018-01-21T22:58:59.157Z,86.94
2018-01-21T23:01:27.798Z,86.95
2018-01-21T23:03:56.469Z,86.75
2018-01-21T23:06:24.168Z,86.53
2018-01-21T23:08:52.074Z,86.19
2018-01-21T23:11:19.992Z,86.01
2018-01-21T23:13:47.961Z,85.67
2018-01-21T23:16:15.829Z,86.70
2018-01-21T23:18:43.842Z,86.80
2018-01-21T23:21:11.984Z,86.83
2018-01-21T23:23:39.975Z,86.54
2018-01-21T23:26:08.113Z,86.65
2018-01-21T23:28:36.167Z,87.07
2018-01-21T23:31:04.259Z,86.73
2018-01-21T23:33:32.191Z,87.36
2018-01-21T23:36:00.204Z,87.63
2018-01-21T23:38:28.274Z,87.17
2018-01-21T23:40:56.321Z,87.00
2018-01-21T23:43:24.417Z,86.78
2018-01-21T23:45:52.486Z,86.26
2018-01-21T23:48:20.493Z,85.16
2018-01-21T23:50:48.415Z,85.62
2018-01-21T23:53:16.514Z,86.19
2018-01-21T23:55:44.570Z,86.75
2018-01-21T23:58:13.050Z,86.26
